createdAt,value
2019-03-29T00:05:25.909Z,37.53
2019-03-29T00:07:54.523Z,40.90
2019-03-29T00:10:23.145Z,45.77
2019-03-29T00:12:52.063Z,32.77
2019-03-29T00:15:20.696Z,28.00
2019-03-29T00:17:49.505Z,43.63
2019-03-29T00:20:18.111Z,56.53
2019-03-29T00:22:49.498Z,31.10
2019-03-29T00:25:18.113Z,48.40
2019-03-29T00:27:49.902Z,44.10
2019-03-29T00:30:18.455Z,44.93
2019-03-29T00:33:04.746Z,37.03
2019-03-29T00:35:34.124Z,47.13
2019-03-29T00:38:03.081Z,62.03
2019-03-29T00:40:31.748Z,46.63
2019-03-29T00:43:01.187Z,46.10
2019-03-29T00:45:29.831Z,51.23
2019-03-29T00:47:58.437Z,43.23
2019-03-29T00:50:27.418Z,40.33
2019-03-29T00:52:56.068Z,38.60
2019-03-29T00:55:24.678Z,35.00
2019-03-29T00:57:53.286Z,51.00
2019-03-29T01:00:22.102Z,44.20
2019-03-29T01:02:50.668Z,44.07
2019-03-29T01:05:19.322Z,43.57
2019-03-29T01:07:47.939Z,46.53
2019-03-29T01:10:18.201Z,41.77
2019-03-29T01:12:49.471Z,47.03
2019-03-29T01:15:18.205Z,44.07
2019-03-29T01:17:49.997Z,40.03
2019-03-29T01:20:18.649Z,37.57
2019-03-29T01:22:47.210Z,47.90
2019-03-29T01:25:17.385Z,44.93
2019-03-29T01:27:46.319Z,39.90
2019-03-29T01:30:15.134Z,35.10
2019-03-29T01:32:44.880Z,45.43
2019-03-29T01:35:13.783Z,50.27
2019-03-29T01:37:42.405Z,48.50
2019-03-29T01:40:11.309Z,73.47
2019-03-29T01:42:39.865Z,68.90
2019-03-29T01:45:09.763Z,50.53
2019-03-29T01:47:38.366Z,53.80
2019-03-29T01:50:08.132Z,49.67
2019-03-29T01:52:37.403Z,61.70
2019-03-29T01:55:07.227Z,62.97
2019-03-29T01:57:36.126Z,47.30
2019-03-29T02:00:06.433Z,57.10
2019-03-29T02:02:34.994Z,50.00
2019-03-29T02:05:04.917Z,45.70
2019-03-29T02:07:33.490Z,43.33
2019-03-29T02:10:02.072Z,37.90
2019-03-29T02:12:31.018Z,42.37
2019-03-29T02:15:00.047Z,40.67
2019-03-29T02:17:28.666Z,55.53
2019-03-29T02:19:58.104Z,45.97
2019-03-29T02:22:26.716Z,41.97
2019-03-29T02:24:55.337Z,39.43
2019-03-29T02:27:23.945Z,38.17
2019-03-29T02:29:52.560Z,48.13
2019-03-29T02:32:21.432Z,50.33
2019-03-29T02:34:50.093Z,41.07
2019-03-29T02:37:18.706Z,40.70
2019-03-29T02:39:47.418Z,48.17
2019-03-29T02:42:16.362Z,44.50
2019-03-29T02:44:46.809Z,39.73
2019-03-29T02:47:18.187Z,44.53
2019-03-29T02:49:50.195Z,48.90
2019-03-29T02:52:18.753Z,55.20
2019-03-29T02:54:47.403Z,43.73
2019-03-29T02:57:17.652Z,40.70
2019-03-29T02:59:49.438Z,44.03
2019-03-29T03:02:18.048Z,37.67
2019-03-29T03:04:48.304Z,40.47
2019-03-29T03:07:19.972Z,43.13
2019-03-29T03:09:48.701Z,43.23
2019-03-29T03:12:17.324Z,45.97
2019-03-29T03:14:47.462Z,38.97
2019-03-29T03:17:16.233Z,35.17
2019-03-29T03:19:46.560Z,32.90
2019-03-29T03:22:15.185Z,33.93
2019-03-29T03:24:43.801Z,33.80
2019-03-29T03:27:12.410Z,31.30
2019-03-29T03:29:40.998Z,38.17
2019-03-29T03:32:09.569Z,36.53
2019-03-29T03:34:38.203Z,25.17
2019-03-29T03:37:06.792Z,28.90
2019-03-29T03:39:35.497Z,32.43
2019-03-29T03:42:04.207Z,29.33
2019-03-29T03:44:32.818Z,28.30
2019-03-29T03:47:01.427Z,33.80
2019-03-29T03:49:30.042Z,32.60
2019-03-29T03:51:58.854Z,33.43
2019-03-29T03:54:27.667Z,29.43
2019-03-29T03:56:56.589Z,35.93
2019-03-29T03:59:26.527Z,30.53
2019-03-29T04:01:55.131Z,37.17
2019-03-29T04:04:23.841Z,31.00
2019-03-29T04:06:52.451Z,32.77
2019-03-29T04:09:21.046Z,31.50
2019-03-29T04:11:49.624Z,30.13
2019-03-29T04:14:18.287Z,29.47
2019-03-29T04:16:46.899Z,30.30
2019-03-29T04:19:15.511Z,31.53
2019-03-29T04:21:46.450Z,31.70
2019-03-29T04:24:15.215Z,27.83
2019-03-29T04:26:43.824Z,34.83
2019-03-29T04:29:12.430Z,34.50
2019-03-29T04:31:41.040Z,32.47
2019-03-29T04:34:09.655Z,30.30
2019-03-29T04:36:38.265Z,37.90
2019-03-29T04:39:07.080Z,29.63
2019-03-29T04:41:35.706Z,30.47
2019-03-29T04:44:04.597Z,33.47
2019-03-29T04:46:33.324Z,29.00
2019-03-29T04:49:01.936Z,34.53
2019-03-29T04:51:30.813Z,31.17
2019-03-29T04:53:59.459Z,28.37
2019-03-29T04:56:28.071Z,28.77
2019-03-29T04:58:56.681Z,36.07
2019-03-29T05:01:25.358Z,32.00
2019-03-29T05:03:53.946Z,33.67
2019-03-29T05:06:22.611Z,38.00
2019-03-29T05:08:51.216Z,35.10
2019-03-29T05:11:19.772Z,39.70
2019-03-29T05:13:48.435Z,36.13
2019-03-29T05:16:16.995Z,38.00
2019-03-29T05:18:45.659Z,45.33
2019-03-29T05:21:15.154Z,43.20
2019-03-29T05:23:43.804Z,40.10
2019-03-29T05:26:19.836Z,47.77
2019-03-29T05:28:48.737Z,44.30
2019-03-29T05:34:18.700Z,51.17
2019-03-29T05:36:47.262Z,58.43
2019-03-29T05:39:17.623Z,52.20
2019-03-29T05:41:49.313Z,51.00
2019-03-29T05:44:17.972Z,49.80
2019-03-29T05:46:48.177Z,52.73
2019-03-29T05:49:19.870Z,50.00
2019-03-29T05:51:48.478Z,62.33
2019-03-29T05:54:17.089Z,74.77
2019-03-29T05:56:45.696Z,54.53
2019-03-29T05:59:16.999Z,56.87
2019-03-29T06:01:45.569Z,64.10
2019-03-29T06:04:14.513Z,62.30
2019-03-29T06:06:43.116Z,61.23
2019-03-29T06:09:11.832Z,66.03
2019-03-29T06:11:40.462Z,66.90
2019-03-29T06:14:09.049Z,53.00
2019-03-29T06:16:39.301Z,55.67
2019-03-29T06:19:08.143Z,66.47
2019-03-29T06:21:37.766Z,61.33
2019-03-29T06:24:06.376Z,58.60
2019-03-29T06:26:34.984Z,55.07
2019-03-29T06:29:03.576Z,63.07
2019-03-29T06:31:32.520Z,60.93
2019-03-29T06:34:01.128Z,56.03
2019-03-29T06:36:31.800Z,51.97
2019-03-29T06:39:01.741Z,57.13
2019-03-29T06:41:30.296Z,60.57
2019-03-29T06:43:59.293Z,50.63
2019-03-29T06:46:27.915Z,54.93
2019-03-29T06:48:56.950Z,52.20
2019-03-29T06:51:25.500Z,46.23
2019-03-29T06:53:54.173Z,48.33
2019-03-29T06:56:22.812Z,47.30
2019-03-29T06:58:51.415Z,49.03
2019-03-29T07:01:20.032Z,53.20
2019-03-29T07:03:48.747Z,45.57
2019-03-29T07:06:17.359Z,47.47
2019-03-29T07:08:47.548Z,46.63
2019-03-29T07:11:19.406Z,47.20
2019-03-29T07:13:57.492Z,41.93
2019-03-29T07:16:18.368Z,43.30
2019-03-29T07:18:46.976Z,39.53
2019-03-29T07:21:21.534Z,35.90
2019-03-29T07:23:48.056Z,44.83
2019-03-29T07:26:19.488Z,41.77
2019-03-29T07:28:48.447Z,46.47
2019-03-29T07:31:17.113Z,41.80
2019-03-29T07:33:47.264Z,39.17
2019-03-29T07:36:17.424Z,37.83
2019-03-29T07:38:49.019Z,41.17
2019-03-29T07:41:31.174Z,41.80
2019-03-29T07:43:47.900Z,39.07
2019-03-29T07:46:18.160Z,50.37
2019-03-29T07:48:49.612Z,61.73
2019-03-29T07:51:18.196Z,35.20
2019-03-29T07:53:49.740Z,60.53
2019-03-29T07:56:18.351Z,40.43
2019-03-29T07:58:47.375Z,41.20
2019-03-29T08:01:18.919Z,42.10
2019-03-29T08:03:47.580Z,39.37
2019-03-29T08:06:17.241Z,40.33
2019-03-29T08:08:47.358Z,40.03
2019-03-29T08:11:26.124Z,43.00
2019-03-29T08:13:48.231Z,42.80
2019-03-29T08:16:19.470Z,33.50
2019-03-29T08:18:48.389Z,39.00
2019-03-29T08:21:17.624Z,45.73
2019-03-29T08:23:46.212Z,41.47
2019-03-29T08:26:16.497Z,36.87
2019-03-29T08:28:45.464Z,34.10
2019-03-29T08:31:15.856Z,38.67
2019-03-29T08:33:44.826Z,41.77
2019-03-29T08:36:13.465Z,39.57
2019-03-29T08:38:42.082Z,40.33
2019-03-29T08:41:10.723Z,45.23
2019-03-29T08:43:39.844Z,37.33
2019-03-29T08:46:08.572Z,31.40
2019-03-29T08:48:37.179Z,38.90
2019-03-29T08:51:05.919Z,37.20
2019-03-29T08:53:34.558Z,38.23
2019-03-29T08:56:03.302Z,40.57
2019-03-29T08:58:32.027Z,36.97
2019-03-29T09:01:00.840Z,33.13
2019-03-29T09:03:30.025Z,41.87
2019-03-29T09:05:58.664Z,42.20
2019-03-29T09:08:27.633Z,32.93
2019-03-29T09:10:56.386Z,40.80
2019-03-29T09:13:25.148Z,34.47
2019-03-29T09:15:53.812Z,39.57
2019-03-29T09:18:25.740Z,33.97
2019-03-29T09:20:53.127Z,41.87
2019-03-29T09:23:23.363Z,31.60
2019-03-29T09:25:52.499Z,36.63
2019-03-29T09:28:21.112Z,31.93
2019-03-29T09:30:49.715Z,29.80
2019-03-29T09:33:18.323Z,29.90
2019-03-29T09:35:47.037Z,33.27
2019-03-29T09:38:15.666Z,21.27
2019-03-29T09:40:52.202Z,29.73
2019-03-29T09:43:16.568Z,26.37
2019-03-29T09:45:45.714Z,28.33
2019-03-29T09:48:17.305Z,23.07
2019-03-29T09:50:50.449Z,25.00
2019-03-29T09:53:18.212Z,36.60
2019-03-29T09:55:53.163Z,26.63
2019-03-29T09:58:20.049Z,20.50
2019-03-29T10:00:49.268Z,23.90
2019-03-29T10:03:17.997Z,23.50
2019-03-29T10:05:48.115Z,20.10
2019-03-29T10:08:20.062Z,23.70
2019-03-29T10:10:49.017Z,25.60
2019-03-29T10:13:17.626Z,20.40
2019-03-29T10:15:51.282Z,24.77
2019-03-29T10:18:19.581Z,23.63
2019-03-29T10:20:48.421Z,17.07
2019-03-29T10:23:17.069Z,19.00
2019-03-29T10:25:46.169Z,20.60
2019-03-29T10:28:16.900Z,23.20
2019-03-29T10:30:46.862Z,25.67
2019-03-29T10:33:17.251Z,17.73
2019-03-29T10:35:52.293Z,17.43
2019-03-29T10:38:18.378Z,23.40
2019-03-29T10:40:47.344Z,19.40
2019-03-29T10:43:17.581Z,22.93
2019-03-29T10:45:49.393Z,13.30
2019-03-29T10:48:18.214Z,13.40
2019-03-29T10:50:50.889Z,17.23
2019-03-29T10:53:19.467Z,15.87
2019-03-29T10:55:48.418Z,14.30
2019-03-29T10:58:18.641Z,13.70
2019-03-29T11:00:47.275Z,14.77
2019-03-29T11:03:17.349Z,14.67
2019-03-29T11:05:47.474Z,14.60
2019-03-29T11:08:19.400Z,13.33
2019-03-29T11:10:48.104Z,10.57
2019-03-29T11:13:18.301Z,7.83
2019-03-29T11:15:49.665Z,9.73
2019-03-29T11:18:18.231Z,12.27
2019-03-29T11:20:50.377Z,9.50
2019-03-29T11:23:19.087Z,8.60
2019-03-29T11:25:48.841Z,9.80
2019-03-29T11:28:17.753Z,9.10
2019-03-29T11:30:46.779Z,7.13
2019-03-29T11:33:18.168Z,6.03
2019-03-29T11:35:50.174Z,4.33
2019-03-29T11:38:18.734Z,4.40
2019-03-29T11:40:47.290Z,5.00
2019-03-29T11:43:26.454Z,5.97
2019-03-29T11:45:48.015Z,5.87
2019-03-29T11:48:38.772Z,4.83
2019-03-29T11:51:18.629Z,9.03
2019-03-29T11:53:39.880Z,3.27
2019-03-29T11:56:08.317Z,5.60
2019-03-29T11:58:37.028Z,4.97
2019-03-29T12:01:05.751Z,4.37
2019-03-29T12:03:34.555Z,4.27
2019-03-29T12:06:03.165Z,3.40
2019-03-29T12:08:31.747Z,4.23
2019-03-29T12:11:00.794Z,4.77
2019-03-29T12:13:40.475Z,3.60
2019-03-29T12:15:59.760Z,8.10
2019-03-29T12:18:28.369Z,4.43
2019-03-29T12:20:57.077Z,3.67
2019-03-29T12:23:26.002Z,3.33
2019-03-29T12:25:54.719Z,3.90
2019-03-29T12:28:23.335Z,2.83
2019-03-29T12:30:51.949Z,3.50
2019-03-29T12:33:20.991Z,2.70
2019-03-29T12:35:49.703Z,5.30
2019-03-29T12:38:18.275Z,3.20
2019-03-29T12:40:47.552Z,4.57
2019-03-29T12:43:18.860Z,5.60
2019-03-29T12:45:47.469Z,4.30
2019-03-29T12:48:18.963Z,6.03
2019-03-29T12:50:47.575Z,4.40
2019-03-29T12:53:18.948Z,3.20
2019-03-29T12:55:47.658Z,5.30
2019-03-29T12:58:16.339Z,3.80
2019-03-29T13:00:46.732Z,3.60
2019-03-29T13:03:18.235Z,4.90
2019-03-29T13:05:50.081Z,5.60
2019-03-29T13:08:18.634Z,3.80
2019-03-29T13:10:47.432Z,3.47
2019-03-29T13:13:18.821Z,5.13
2019-03-29T13:15:47.541Z,7.93
2019-03-29T13:18:19.136Z,4.93
2019-03-29T13:20:47.858Z,4.77
2019-03-29T13:23:17.123Z,3.73
2019-03-29T13:25:45.801Z,4.83
2019-03-29T13:28:17.204Z,6.00
2019-03-29T13:30:47.460Z,4.70
2019-03-29T13:33:20.767Z,4.60
2019-03-29T13:36:08.630Z,4.97
2019-03-29T13:41:31.173Z,4.40
2019-03-29T13:44:03.783Z,4.37
2019-03-29T13:46:38.327Z,5.50
2019-03-29T13:49:06.904Z,5.37
2019-03-29T13:51:35.979Z,10.33
2019-03-29T13:54:10.006Z,4.30
2019-03-29T13:56:39.050Z,3.60
2019-03-29T13:59:11.556Z,5.07
2019-03-29T14:01:41.008Z,4.83
2019-03-29T14:04:09.611Z,4.77
2019-03-29T14:06:38.431Z,7.17
2019-03-29T14:09:07.990Z,4.63
2019-03-29T14:11:37.100Z,5.10
2019-03-29T14:14:05.710Z,5.27
2019-03-29T14:16:34.324Z,7.70
2019-03-29T14:19:03.197Z,4.40
2019-03-29T14:21:39.058Z,5.73
2019-03-29T14:24:07.016Z,3.47
2019-03-29T14:26:36.035Z,3.47
2019-03-29T14:29:16.971Z,5.73
2019-03-29T14:31:54.187Z,8.63
2019-03-29T14:34:22.675Z,7.83
2019-03-29T14:36:51.292Z,6.00
2019-03-29T14:39:19.900Z,6.13
2019-03-29T14:41:48.622Z,6.53
2019-03-29T14:44:17.474Z,6.50
2019-03-29T14:46:48.827Z,9.77
2019-03-29T14:49:17.378Z,6.03
2019-03-29T14:51:47.604Z,7.77
2019-03-29T14:54:19.496Z,8.93
2019-03-29T14:56:48.105Z,6.50
2019-03-29T14:59:18.200Z,13.50
2019-03-29T15:01:49.508Z,12.03
2019-03-29T15:04:18.351Z,7.90
2019-03-29T15:06:47.174Z,8.43
2019-03-29T15:09:16.101Z,8.40
2019-03-29T15:11:44.921Z,6.80
2019-03-29T15:14:15.524Z,9.23
2019-03-29T15:16:44.605Z,8.50
2019-03-29T15:19:13.210Z,8.30
2019-03-29T15:21:41.824Z,7.90
2019-03-29T15:24:10.454Z,7.77
2019-03-29T15:26:39.049Z,14.70
2019-03-29T15:29:07.671Z,9.30
2019-03-29T15:31:36.287Z,11.10
2019-03-29T15:34:10.815Z,10.77
2019-03-29T15:36:39.515Z,11.50
2019-03-29T15:39:08.378Z,11.63
2019-03-29T15:41:36.954Z,8.47
2019-03-29T15:44:05.499Z,11.90
2019-03-29T15:46:34.116Z,12.27
2019-03-29T15:49:02.671Z,12.70
2019-03-29T15:51:31.349Z,13.60
2019-03-29T15:54:00.082Z,11.47
2019-03-29T15:56:28.712Z,14.43
2019-03-29T15:58:57.272Z,10.03
2019-03-29T16:01:25.854Z,9.63
2019-03-29T16:03:54.492Z,10.20
2019-03-29T16:06:23.074Z,9.43
2019-03-29T16:08:51.629Z,8.43
2019-03-29T16:11:22.529Z,6.93
2019-03-29T16:13:50.506Z,8.07
2019-03-29T16:16:19.115Z,10.90
2019-03-29T16:18:47.745Z,10.10
2019-03-29T16:21:16.729Z,12.33
2019-03-29T16:23:48.368Z,11.40
2019-03-29T16:26:16.993Z,7.83
2019-03-29T16:28:45.952Z,11.30
2019-03-29T16:31:14.703Z,10.77
2019-03-29T16:33:43.837Z,10.43
2019-03-29T16:36:12.575Z,6.50
2019-03-29T16:38:41.223Z,5.77
2019-03-29T16:41:09.770Z,7.47
2019-03-29T16:43:38.359Z,6.90
2019-03-29T16:46:07.386Z,8.20
2019-03-29T16:48:36.035Z,8.23
2019-03-29T16:51:04.660Z,8.80
2019-03-29T16:53:33.310Z,9.07
2019-03-29T16:56:02.341Z,9.23
2019-03-29T16:58:31.395Z,6.57
2019-03-29T17:00:59.992Z,6.67
2019-03-29T17:03:28.623Z,6.87
2019-03-29T17:05:57.259Z,16.60
2019-03-29T17:08:25.828Z,7.27
2019-03-29T17:10:54.388Z,7.87
2019-03-29T17:13:22.976Z,7.70
2019-03-29T17:16:01.845Z,7.90
2019-03-29T17:18:29.089Z,9.47
2019-03-29T17:20:52.743Z,6.53
2019-03-29T17:23:21.374Z,10.40
2019-03-29T17:25:50.251Z,7.23
2019-03-29T17:28:18.814Z,8.30
2019-03-29T17:30:49.010Z,9.10
2019-03-29T17:33:17.583Z,7.00
2019-03-29T17:35:47.857Z,8.07
2019-03-29T17:38:17.497Z,9.30
2019-03-29T17:40:48.790Z,8.80
2019-03-29T17:43:17.369Z,9.30
2019-03-29T17:45:47.431Z,5.93
2019-03-29T17:48:19.456Z,6.20
2019-03-29T17:50:48.379Z,5.67
2019-03-29T17:53:16.935Z,7.10
2019-03-29T17:55:45.507Z,7.00
2019-03-29T17:58:14.231Z,6.97
2019-03-29T18:00:42.826Z,6.23
2019-03-29T18:03:12.144Z,5.60
2019-03-29T18:05:41.062Z,8.20
2019-03-29T18:08:09.844Z,6.80
2019-03-29T18:10:38.654Z,6.50
2019-03-29T18:13:07.464Z,7.97
2019-03-29T18:15:36.665Z,7.08
2019-03-29T18:18:05.441Z,7.80
2019-03-29T18:20:34.155Z,6.17
2019-03-29T18:23:02.712Z,8.57
2019-03-29T18:25:31.736Z,7.97
2019-03-29T18:28:00.758Z,4.93
2019-03-29T18:30:38.878Z,5.73
2019-03-29T18:33:08.117Z,7.07
2019-03-29T18:35:36.835Z,6.00
2019-03-29T18:38:05.894Z,4.63
2019-03-29T18:40:34.534Z,7.70
2019-03-29T18:43:03.231Z,4.93
2019-03-29T18:45:31.866Z,7.00
2019-03-29T18:48:00.617Z,9.37
2019-03-29T18:50:29.247Z,6.57
2019-03-29T18:52:58.188Z,7.43
2019-03-29T18:55:26.767Z,7.73
2019-03-29T18:57:55.699Z,11.73
2019-03-29T19:00:29.610Z,7.90
2019-03-29T19:02:58.240Z,6.40
2019-03-29T19:05:27.714Z,8.77
2019-03-29T19:07:56.249Z,6.70
2019-03-29T19:10:24.804Z,6.20
2019-03-29T19:12:53.420Z,8.30
2019-03-29T19:15:22.440Z,6.47
2019-03-29T19:17:51.154Z,10.90
2019-03-29T19:20:27.216Z,8.50
2019-03-29T19:22:50.003Z,8.80
2019-03-29T19:25:18.574Z,12.50
2019-03-29T19:27:47.586Z,12.80
2019-03-29T19:30:16.733Z,14.73
2019-03-29T19:32:46.166Z,13.70
2019-03-29T19:35:16.629Z,13.27
2019-03-29T19:37:48.901Z,16.10
2019-03-29T19:40:18.545Z,11.87
2019-03-29T19:42:47.705Z,12.10
2019-03-29T19:45:18.958Z,11.50
2019-03-29T19:47:47.617Z,13.23
2019-03-29T19:50:17.607Z,10.20
2019-03-29T19:52:46.191Z,15.03
2019-03-29T19:55:16.486Z,19.10
2019-03-29T19:57:46.591Z,22.30
2019-03-29T20:00:17.224Z,22.10
2019-03-29T20:02:47.394Z,20.50
2019-03-29T20:05:27.466Z,22.83
2019-03-29T20:07:56.380Z,23.10
2019-03-29T20:10:25.426Z,29.27
2019-03-29T20:12:54.275Z,30.27
2019-03-29T20:15:24.392Z,56.57
2019-03-29T20:17:53.144Z,51.50
2019-03-29T20:20:26.278Z,63.23
2019-03-29T20:22:56.003Z,51.73
2019-03-29T20:25:25.105Z,54.33
2019-03-29T20:27:57.991Z,41.73
2019-03-29T20:30:25.253Z,47.17
2019-03-29T20:32:54.224Z,38.07
2019-03-29T20:35:22.765Z,32.90
2019-03-29T20:37:51.851Z,24.43
2019-03-29T20:40:20.399Z,26.90
2019-03-29T20:42:48.979Z,20.40
2019-03-29T20:45:17.600Z,27.37
2019-03-29T20:47:46.322Z,16.43
2019-03-29T20:50:18.372Z,17.40
2019-03-29T20:52:47.410Z,15.80
2019-03-29T20:55:18.723Z,17.57
2019-03-29T20:57:47.308Z,20.20
2019-03-29T21:00:17.078Z,20.30
2019-03-29T21:02:45.724Z,16.43
2019-03-29T21:05:17.161Z,10.60
2019-03-29T21:07:47.262Z,14.93
2019-03-29T21:10:18.802Z,13.10
2019-03-29T21:12:47.582Z,10.50
2019-03-29T21:15:16.320Z,26.17
2019-03-29T21:17:56.687Z,19.77
2019-03-29T21:20:16.992Z,30.13
2019-03-29T21:22:45.578Z,25.30
2019-03-29T21:25:17.029Z,15.07
2019-03-29T21:27:45.612Z,13.00
2019-03-29T21:30:15.808Z,9.80
2019-03-29T21:32:45.516Z,13.30
2019-03-29T21:35:16.195Z,14.47
2019-03-29T21:37:46.512Z,12.10
2019-03-29T21:40:18.494Z,14.70
2019-03-29T21:42:47.076Z,15.70
2019-03-29T21:45:28.065Z,16.50
2019-03-29T21:48:01.534Z,13.67
2019-03-29T21:50:18.385Z,13.03
2019-03-29T21:52:47.453Z,14.80
2019-03-29T21:55:18.822Z,16.17
2019-03-29T21:57:47.397Z,13.23
2019-03-29T22:00:19.053Z,11.57
2019-03-29T22:02:47.606Z,16.93
2019-03-29T22:05:19.227Z,16.40
2019-03-29T22:07:47.778Z,14.20
2019-03-29T22:10:16.511Z,17.40
2019-03-29T22:12:45.134Z,22.33
2019-03-29T22:15:16.392Z,13.70
2019-03-29T22:17:45.016Z,12.93
2019-03-29T22:20:14.008Z,13.97
2019-03-29T22:22:42.569Z,12.70
2019-03-29T22:25:11.277Z,14.27
2019-03-29T22:27:40.225Z,11.20
2019-03-29T22:30:11.164Z,12.30
2019-03-29T22:32:40.110Z,13.13
2019-03-29T22:35:09.229Z,11.50
2019-03-29T22:37:37.850Z,13.37
2019-03-29T22:40:10.233Z,12.13
2019-03-29T22:42:38.788Z,15.77
2019-03-29T22:45:09.484Z,14.50
2019-03-29T22:47:38.204Z,12.23
2019-03-29T22:50:08.188Z,9.80
2019-03-29T22:52:36.757Z,14.47
2019-03-29T22:55:09.561Z,17.10
2019-03-29T22:57:38.121Z,12.13
2019-03-29T23:00:44.016Z,15.93
2019-03-29T23:03:12.711Z,14.07
2019-03-29T23:05:41.288Z,12.03
2019-03-29T23:08:09.992Z,12.97
2019-03-29T23:10:38.574Z,13.43
2019-03-29T23:13:07.137Z,13.83
2019-03-29T23:15:35.923Z,13.33
2019-03-29T23:18:04.549Z,10.53
2019-03-29T23:20:33.135Z,12.37
2019-03-29T23:23:01.688Z,14.73
2019-03-29T23:25:30.276Z,9.00
2019-03-29T23:27:58.902Z,10.90
2019-03-29T23:30:27.481Z,10.30
2019-03-29T23:32:56.042Z,10.37
2019-03-29T23:35:24.619Z,13.20
2019-03-29T23:37:53.250Z,14.80
2019-03-29T23:40:21.835Z,12.57
2019-03-29T23:42:50.404Z,12.77
2019-03-29T23:45:18.984Z,13.90
2019-03-29T23:47:47.537Z,16.30
2019-03-29T23:50:19.225Z,13.23
2019-03-29T23:52:47.780Z,15.90
2019-03-29T23:55:16.435Z,13.80
2019-03-29T23:57:44.988Z,15.97
